Latest Coastal Weather Observations for Port Hedland

IDW60701

Issued at 4:03 pm WST Thursday 23 March 2017 (issued every 10 minutes, with the page automatically refreshed every 10 minutes)

About coastal observations | Map of coastal stations | Coastal observations for WA | Marine services | Other Formats
Station Details ID: 004032 Name: PORT HEDLAND AIRPORT Lat: -20.37 Lon: 118.63 Height: 6.4 m
Data from the previous 72 hours. | See also: Recent months at Port Hedland
Date/Time
WST
Temp
°C
Wind Pressure Rain since
9am
mm
Weather Cloud Vis
km
Sea
Height
m
Swell
Dir  Spd
kts
Gust
kts
hPa Trend Height
m
Period
s
Dir
23/03:39pm 25.9 NW 27 37 995.7 - 45.0 Thunderstorm Partly cloudy 5 - - - -
23/03:30pm 25.9 NNW 29 37 995.4 - 45.0 Rain Partly cloudy 6 - - - -
23/03:22pm 26.0 NNW 29 38 995.1 - 44.8 - Partly cloudy 10 - - - -
23/03:00pm 26.0 NNW 29 44 994.2 - 44.6 - Cloudy 4 - - - -
23/02:46pm 26.4 N 25 37 994.2 - 43.8 Showers Partly cloudy 3 - - - -
23/01:58pm 26.7 N 24 33 994.2 - 42.2 Showers Mostly clear 0.8 - - - -
23/01:47pm 27.3 N 30 39 994.0 - 42.2 - Partly cloudy 10 - - - -
23/01:29pm 27.4 N 33 41 993.9 - 42.0 Rain Mostly clear 4 - - - -
23/01:00pm 26.5 NE 38 51 994.0 - 41.0 Showers Partly cloudy 2 - - - -
23/12:50pm 26.7 NE 35 45 994.8 - 39.0 Showers Partly cloudy 3 - - - -
23/12:30pm 27.5 NE 33 45 995.7 - 38.0 Showers Partly cloudy 3 - - - -
23/12:00pm 25.6 ENE 33 45 996.8 - 32.6 Showers Partly cloudy 0.8 - - - -
23/11:37am 26.1 ENE 30 41 997.8 - 30.2 Rain Partly cloudy 5 - - - -
23/11:30am 25.8 ENE 30 38 998.0 - 30.0 Rain Partly cloudy 5 - - - -
23/11:00am 25.6 NE 30 45 999.5 - 28.6 Showers Partly cloudy 3 - - - -
23/10:30am 25.8 NE 27 43 1000.3 - 22.4 Showers Mostly clear 0.8 - - - -
23/10:20am 24.8 NE 26 41 1000.4 - 15.0 Showers Mostly clear 0.5 - - - -
23/10:18am 25.1 NE 23 29 1000.6 - 12.8 Showers Mostly clear 0.6 - - - -
23/10:11am 26.2 ENE 20 30 1000.8 - 10.6 Showers Mostly clear 1 - - - -
23/10:07am 26.4 E 17 25 1000.5 - 7.8 Showers Mostly clear 1 - - - -
23/10:00am 26.3 ESE 15 19 1000.6 - 7.8 - Mostly clear 3 - - - -
23/09:50am 26.5 ENE 15 27 1000.9 - 7.6 Showers Partly cloudy 4 - - - -
23/09:30am 25.8 ESE 12 17 1001.0 - 5.2 Showers Partly cloudy 2 - - - -
23/09:15am 25.9 ESE 15 22 1001.2 - 0.0 Showers Partly cloudy 2 - - - -
23/09:00am 25.3 ESE 13 21 1001.3 F 105.2 Distant precip. Cloudy 10 - - - -
23/08:30am 25.2 SE 15 20 1001.8 - 103.2 Showers Partly cloudy 0.8 - - - -
23/08:18am 25.3 SE 16 24 1001.5 - 93.0 - Partly cloudy 2 - - - -
23/08:07am 25.3 ESE 18 26 1001.3 - 86.2 - Partly cloudy - - - - -
23/08:00am 25.6 ESE 17 25 1001.5 - 83.4 Showers Partly cloudy 0.5 - - - -
23/07:40am 25.7 ESE 17 23 1001.2 - 83.0 Showers Mostly clear 4 - - - -
23/07:30am 25.6 ESE 17 25 1001.1 - 83.0 Showers Mostly clear 10 - - - -
23/07:00am 25.6 SE 15 23 1001.4 - 83.0 Showers Partly cloudy 10 - - - -
23/06:28am 25.4 ESE 16 22 1001.8 - 81.0 Showers Partly cloudy 2 - - - -
23/06:20am 25.7 ESE 15 22 1001.8 - 78.0 Showers Mostly clear 3 - - - -
23/06:00am 25.6 ESE 14 20 1001.5 - 77.8 - Partly cloudy 9 - - - -
23/05:55am 25.6 ESE 14 21 1001.5 - 77.8 - Partly cloudy 10 - - - -
23/05:30am 25.6 ESE 15 20 1001.5 - 77.6 - Partly cloudy 9 - - - -
23/05:27am 25.7 ESE 14 20 1001.6 - 77.4 - Partly cloudy 10 - - - -
23/05:00am 25.7 ESE 15 20 1001.8 - 76.6 - Partly cloudy 10 - - - -
23/04:46am 25.7 ESE 15 19 1001.7 - 76.6 - Partly cloudy 10 - - - -
23/04:35am 25.7 ESE 15 19 1001.7 - 76.6 - Partly cloudy 10 - - - -
23/04:31am 25.8 ESE 15 20 1001.7 - 76.6 - Partly cloudy 10 - - - -
23/04:30am 25.8 ESE 15 20 1001.7 - 76.6 - Partly cloudy 10 - - - -
23/04:21am 25.7 ESE 13 18 1001.8 - 76.6 - Partly cloudy 10 - - - -
23/04:07am 25.3 E 11 16 1001.9 - 76.6 - Partly cloudy 6 - - - -
23/04:06am 25.3 E 12 16 1001.8 - 76.4 - Partly cloudy 7 - - - -
23/04:00am 25.5 E 14 16 1001.8 - 75.6 - Partly cloudy 10 - - - -
23/03:36am 25.6 ESE 13 19 1001.7 - 75.4 - Partly cloudy 10 - - - -
23/03:30am 25.6 ESE 13 19 1001.7 - 75.4 - Partly cloudy 10 - - - -
23/03:18am 25.4 SE 11 15 1001.7 - 75.4 - Partly cloudy 7 - - - -
23/03:07am 25.4 ESE 11 15 1001.7 - 74.8 - Partly cloudy 10 - - - -
23/03:01am 25.3 ESE 13 18 1001.8 - 74.8 - Partly cloudy 10 - - - -
23/03:00am 25.3 ESE 13 18 1001.7 - 74.8 - Cloudy 9 - - - -
23/02:45am 25.2 ESE 14 21 1002.0 - 74.6 - Partly cloudy 6 - - - -
23/02:42am 25.2 ESE 13 18 1002.1 - 74.4 - Partly cloudy 7 - - - -
23/02:30am 25.2 SE 13 17 1002.0 - 73.8 - Partly cloudy 10 - - - -
23/02:16am 25.3 SE 12 19 1002.3 - 73.8 - Partly cloudy 10 - - - -
23/02:00am 25.0 SE 11 15 1002.7 - 73.4 - Partly cloudy 6 - - - -
23/01:56am 25.0 SE 12 15 1002.6 - 73.4 - Partly cloudy 7 - - - -
23/01:50am 25.0 SE 12 16 1002.7 - 72.2 - Partly cloudy 10 - - - -
23/01:30am 25.2 SE 11 17 1003.2 - 69.8 - Partly cloudy 5 - - - -
23/01:27am 25.3 SE 12 17 1003.1 - 69.4 - Partly cloudy 6 - - - -
23/01:26am 25.3 SE 12 17 1003.1 - 69.2 - Partly cloudy 7 - - - -
23/01:12am 25.1 ESE 11 15 1003.3 - 68.4 - Partly cloudy 10 - - - -
23/01:00am 24.8 SE 9 12 1003.5 - 68.4 - Partly cloudy 5 - - - -
23/12:30am 24.8 SSE 10 18 1003.9 - 59.0 - Partly cloudy 3 - - - -
23/12:20am 24.8 SSE 11 14 1004.1 - 56.0 - Partly cloudy 4 - - - -
23/12:10am 24.9 SSE 10 14 1004.2 - 53.8 - Partly cloudy 7 - - - -
23/12:00am 25.0 SSE 9 11 1004.3 - 52.8 - Cloudy 10 - - - -
 
Date/Time
WST
Temp
°C
Wind Pressure Rain since
9am
mm
Weather Cloud Vis
km
Sea
Height
m
Swell
Dir  Spd
kts
Gust
kts
hPa Trend Height
m
Period
s
Dir
22/11:40pm 25.1 SSE 8 10 1004.8 - 52.8 - Partly cloudy 10 - - - -
22/11:30pm 25.2 SSE 8 10 1004.9 - 52.8 - Partly cloudy 10 - - - -
22/11:15pm 25.2 SE 8 11 1005.3 - 52.8 - Partly cloudy 10 - - - -
22/11:00pm 25.0 S 7 9 1005.5 - 52.6 - Partly cloudy 10 - - - -
22/10:52pm 24.9 S 6 7 1005.6 - 52.6 - Partly cloudy 10 - - - -
22/10:33pm 24.9 SW 4 5 1005.9 - 52.6 - Partly cloudy 10 - - - -
22/10:30pm 24.9 W 4 5 1006.0 - 52.6 - Partly cloudy 10 - - - -
22/10:08pm 25.0 S 5 8 1006.4 - 50.0 - Partly cloudy 2 - - - -
22/10:02pm 25.1 S 4 7 1006.6 - 46.4 - Partly cloudy 6 - - - -
22/10:00pm 25.1 S 5 8 1006.4 - 45.2 - Partly cloudy 10 - - - -
22/09:55pm 25.1 S 7 9 1006.3 - 45.0 - Partly cloudy 10 - - - -
22/09:41pm 24.9 S 7 10 1006.0 - 45.0 - Partly cloudy 10 - - - -
22/09:30pm 24.8 S 7 8 1006.3 - 45.0 - Partly cloudy 4 - - - -
22/09:05pm 24.8 SE 7 11 1006.4 - 39.0 - Partly cloudy 6 - - - -
22/09:00pm 24.8 SE 8 13 1006.4 - 37.4 - Cloudy 10 - - - -
22/08:50pm 24.9 SE 11 15 1006.5 - 37.0 - Partly cloudy 6 - - - -
22/08:30pm 24.8 SE 9 11 1006.1 - 35.0 - - 10 - - - -
22/08:14pm 24.5 SE 9 12 1006.1 - 35.0 - Partly cloudy 10 - - - -
22/08:00pm 24.6 SE 9 12 1006.0 - 35.0 - Partly cloudy 10 - - - -
22/07:49pm 25.0 ESE 11 14 1006.1 - 34.8 - Partly cloudy 10 - - - -
22/07:30pm 24.7 E 10 14 1006.2 - 34.6 - Partly cloudy 10 - - - -
22/07:23pm 24.4 E 12 17 1006.1 - 34.6 - Partly cloudy 10 - - - -
22/07:06pm 24.7 E 17 23 1006.1 - 34.4 - Partly cloudy 10 - - - -
22/07:00pm 25.1 E 17 22 1006.0 - 34.2 - Partly cloudy 10 - - - -
22/06:31pm 25.1 SE 7 10 1005.5 - 34.2 - Partly cloudy 10 - - - -
22/06:30pm 25.1 SE 7 10 1005.5 - 34.2 - Partly cloudy 10 - - - -
22/06:09pm 24.9 ESE 7 9 1005.5 - 33.8 - Partly cloudy 10 - - - -
22/06:00pm 25.0 ESE 7 10 1005.4 - 33.8 - Cloudy 8 - - - -
22/05:49pm 24.9 E 6 13 1005.8 - 32.8 - Partly cloudy 6 - - - -
22/05:30pm 24.8 E 6 7 1005.3 - 28.6 - Partly cloudy 10 - - - -
22/05:26pm 24.8 ESE 6 9 1005.3 - 28.4 - Partly cloudy 10 - - - -
22/05:01pm 24.4 ENE 18 29 1005.1 - 27.4 - Partly cloudy - - - - -
22/05:00pm 24.4 NE 20 29 1005.1 - 27.0 - Partly cloudy - - - - -
22/04:59pm 24.4 NE 23 29 1005.3 - 26.8 - Partly cloudy - - - - -
22/04:55pm 23.5 N 17 30 1005.6 - 23.0 - Partly cloudy 0.7 - - - -
22/04:50pm 23.4 NNE 18 25 1005.9 - 15.2 - Partly cloudy 1 - - - -
22/04:46pm 25.2 NE 17 25 1006.0 - 7.0 - Partly cloudy - - - - -
22/04:30pm 26.5 ESE 7 9 1004.4 - 1.8 - Partly cloudy 10 - - - -
22/04:02pm 26.5 ENE 6 8 1004.5 - 1.8 - Partly cloudy 10 - - - -
22/04:00pm 26.5 ENE 7 8 1004.4 - 1.8 - Partly cloudy 10 - - - -
22/03:33pm 26.1 NE 13 19 1004.0 - 1.6 - Partly cloudy 8 - - - -
22/03:30pm 26.1 NE 15 25 1004.0 - 1.6 - Partly cloudy - - - - -
22/03:24pm 26.1 NE 20 29 1003.8 - 1.4 - Partly cloudy - - - - -
22/03:17pm 26.4 NE 25 38 1003.9 - 1.2 - Partly cloudy 7 - - - -
22/03:11pm 28.0 NE 19 37 1004.0 - 1.2 - Partly cloudy 10 - - - -
22/03:08pm 30.5 NE 15 25 1003.8 - 1.2 - - 10 - - - -
22/03:00pm 31.0 NE 14 17 1003.5 - 1.2 - - 10 - - - -
22/02:30pm 31.3 NE 15 19 1004.0 - 1.2 - - 10 - - - -
22/02:00pm 30.5 ENE 11 15 1004.2 - 1.2 - Partly cloudy 10 - - - -
22/01:30pm 30.6 ENE 9 14 1004.5 - 1.2 - Partly cloudy 10 - - - -
22/01:00pm 31.0 NE 10 13 1005.0 - 1.2 - Partly cloudy 10 - - - -
22/12:30pm 31.3 E 9 15 1005.2 - 1.2 - Partly cloudy 10 - - - -
22/12:00pm 29.5 ESE 10 14 1005.6 - 1.0 - Mostly clear 10 - - - -
22/11:30am 27.7 SE 11 14 1006.6 - 1.0 - Mostly clear 10 - - - -
22/11:00am 26.1 SE 8 11 1006.9 - 1.0 - Mostly clear 10 - - - -
22/10:30am 25.4 ESE 9 11 1007.3 - 1.0 Showers Mostly clear 10 - - - -
22/10:00am 24.8 E 9 11 1007.5 - 0.8 - Mostly clear 10 - - - -
22/09:30am 24.4 E 9 10 1007.9 - 0.8 - Mostly clear 8 - - - -
22/09:00am 24.1 ENE 8 10 1008.5 R 103.2 Showers Cloudy 9 - - - -
22/08:49am 23.8 ENE 19 29 1009.4 - 101.8 Showers Partly cloudy 2 - - - -
22/08:39am 24.6 E 11 16 1009.4 - 95.0 Showers Partly cloudy 3 - - - -
22/08:30am 24.5 ESE 8 11 1008.6 - 95.0 Showers Partly cloudy 8 - - - -
22/08:00am 25.1 E 6 8 1008.0 - 94.6 Showers Mostly clear 8 - - - -
22/07:30am 25.5 NNE 9 12 1008.1 - 92.8 Thunderstorm Partly cloudy 5 - - - -
22/07:00am 24.7 N 13 17 1008.1 - 87.0 Thunderstorm Mostly clear 2 - - - -
22/06:30am 25.0 N 17 21 1007.4 - 55.6 Thunderstorm Partly cloudy 2 - - - -
22/06:25am 25.6 NNE 16 24 1006.7 - 53.0 Thunderstorm Partly cloudy 2 - - - -
22/06:19am 25.7 E 21 24 1005.8 - 52.2 Thunderstorm Partly cloudy 2 - - - -
22/06:00am 25.0 N 16 19 1005.7 - 32.0 - Cloudy 2 - - - -
22/05:51am 25.7 N 17 23 1005.5 - 29.2 Thunderstorm Mostly clear 2 - - - -
22/05:43am 26.6 NE 15 25 1006.0 - 26.8 - Partly cloudy - - - - -
22/05:30am 24.9 NW 14 17 1005.7 - 19.6 - Partly cloudy - - - - -
22/05:25am 25.0 N 11 19 1006.0 - 8.6 - Partly cloudy - - - - -
22/05:17am 26.0 NE 16 26 1006.1 - 2.2 - Partly cloudy - - - - -
22/05:15am 26.3 NE 20 26 1005.8 - 1.4 - Partly cloudy 7 - - - -
22/05:13am 26.6 N 11 26 1005.2 - 1.2 - Partly cloudy 7 - - - -
22/05:12am 26.7 SW 7 11 1005.3 - 0.8 - Partly cloudy 8 - - - -
22/05:00am 28.4 SE 7 10 1005.0 - 0.4 - Partly cloudy 10 - - - -
22/04:30am 28.8 SE 9 13 1004.4 - 0.0 - Partly cloudy 10 - - - -
22/04:00am 29.1 SE 8 13 1004.4 - 0.0 - Partly cloudy 10 - - - -
22/03:30am 29.1 ESE 7 9 1004.7 - 0.0 - Partly cloudy 10 - - - -
22/03:00am 29.1 ESE 7 9 1005.0 - 0.0 - Mostly clear 10 - - - -
22/02:30am 28.8 E 7 9 1005.5 - 0.0 - - 10 - - - -
22/02:00am 29.1 ESE 6 8 1006.0 - 0.0 - - 10 - - - -
22/01:30am 29.2 ESE 6 8 1005.9 - 0.0 - - 10 - - - -
22/01:00am 29.6 E 5 7 1006.4 - 0.0 - Partly cloudy 10 - - - -
22/12:30am 30.2 ESE 5 6 1006.9 - 0.0 - Partly cloudy 10 - - - -
22/12:00am 30.2 SE 3 5 1006.9 - 0.0 - Mostly cloudy 10 - - - -
 
Date/Time
WST
Temp
°C
Wind Pressure Rain since
9am
mm
Weather Cloud Vis
km
Sea
Height
m
Swell
Dir  Spd
kts
Gust
kts
hPa Trend Height
m
Period
s
Dir
21/11:30pm 30.0 ESE 5 6 1007.4 - 0.0 - Partly cloudy 10 - - - -
21/11:00pm 30.0 WNW 4 4 1007.3 - 0.0 - Partly cloudy 10 - - - -
21/10:30pm 30.0 NNW 4 5 1007.4 - 0.0 - Partly cloudy 10 - - - -
21/10:00pm 30.1 NNW 4 5 1007.5 - 0.0 - Partly cloudy 10 - - - -
21/09:30pm 29.7 N 5 6 1007.6 - 0.0 - - 10 - - - -
21/09:00pm 29.9 NNW 4 5 1007.4 - 0.0 - - 10 - - - -
21/08:30pm 29.9 NNW 5 6 1007.4 - 0.0 - - 10 - - - -
21/08:00pm 30.6 N 6 7 1006.9 - 0.0 - - 10 - - - -
21/07:30pm 30.6 N 6 8 1006.6 - 0.0 - - 10 - - - -
21/07:00pm 30.8 N 7 9 1006.3 - 0.0 - - 10 - - - -
21/06:30pm 30.9 N 8 11 1005.9 - 0.0 - - 10 - - - -
21/06:00pm 31.4 N 9 11 1005.3 - 0.0 - - 10 - - - -
21/05:30pm 31.8 N 10 13 1005.4 - 0.0 - - 10 - - - -
21/05:00pm 32.2 N 13 16 1004.6 - 0.0 - - 10 - - - -
21/04:30pm 32.8 N 13 16 1004.2 - 0.0 - - 10 - - - -
21/04:00pm 33.5 N 13 15 1004.4 - 0.0 - - 10 - - - -
21/03:30pm 33.6 N 13 17 1004.9 - 0.0 - - 10 - - - -
21/03:00pm 34.0 N 13 16 1005.1 - 0.0 - Mostly clear 10 - - - -
21/02:30pm 34.2 N 13 16 1005.4 - 0.0 - Mostly clear 10 - - - -
21/02:00pm 34.4 N 13 16 1005.6 - 0.0 - Mostly clear 10 - - - -
21/01:30pm 33.9 N 11 15 1005.5 - 0.0 - Mostly clear 10 - - - -
21/01:00pm 34.0 NNE 11 14 1005.7 - 0.0 - Mostly clear 10 - - - -
21/12:30pm 33.0 NNE 11 14 1005.6 - 0.0 - Mostly clear 10 - - - -
21/12:00pm 33.1 NNE 9 12 1006.0 - 0.0 - Mostly clear 10 - - - -
21/11:30am 33.6 NNE 10 13 1006.7 - 0.0 - Mostly clear 10 - - - -
21/11:00am 32.3 NNE 12 15 1007.1 - 0.0 - Mostly clear 10 - - - -
21/10:30am 32.1 NNE 11 14 1007.4 - 0.0 - Mostly clear 10 - - - -
21/10:00am 31.4 NE 11 14 1007.7 - 0.0 - Mostly clear 10 - - - -
21/09:30am 33.1 NE 11 13 1007.7 - 0.0 - Mostly clear 10 - - - -
21/09:00am 32.3 ENE 9 12 1007.7 R 0.0 Fine Mostly clear 30 - - - -
21/08:30am 31.1 ENE 10 12 1008.2 - 0.0 - Mostly clear 10 - - - -
21/08:00am 30.4 ESE 7 10 1007.9 - 0.0 - Mostly clear 10 - - - -
21/07:30am 28.3 SE 11 15 1008.1 - 0.0 - Mostly clear 10 - - - -
21/07:00am 28.0 S 9 12 1008.0 - 0.0 - Mostly clear 10 - - - -
21/06:30am 28.0 E 13 17 1007.5 - 0.0 Thunder Mostly clear 10 - - - -
21/06:00am 30.9 NNE 8 11 1006.1 - 0.0 - Mostly cloudy 10 - - - -
21/05:30am 30.3 N 13 19 1006.1 - 0.0 - Partly cloudy 10 - - - -
21/05:00am 30.8 NNE 12 16 1006.2 - 0.0 - - 10 - - - -
21/04:30am 29.4 NNE 7 8 1005.8 - 0.0 - - 10 - - - -
21/04:00am 28.4 NNW 6 7 1005.3 - 0.0 - - 10 - - - -
21/03:30am 28.6 NW 3 4 1005.6 - 0.0 - - 10 - - - -
21/03:00am 29.1 NW 7 11 1005.6 - 0.0 - - 10 - - - -
21/02:30am 29.1 N 7 8 1005.7 - 0.0 - - 10 - - - -
21/02:00am 30.0 N 5 6 1005.6 - 0.0 - - 10 - - - -
21/01:30am 29.4 W 1 5 1005.9 - 0.0 - - 10 - - - -
21/01:00am 29.4 CALM 0 0 1006.0 - 0.0 - - 10 - - - -
21/12:30am 29.8 WSW 2 4 1006.0 - 0.0 - - 10 - - - -
21/12:00am 30.0 SW 4 5 1006.4 - 0.0 - - 10 - - - -
 
Date/Time
WST
Temp
°C
Wind Pressure Rain since
9am
mm
Weather Cloud Vis
km
Sea
Height
m
Swell
Dir  Spd
kts
Gust
kts
hPa Trend Height
m
Period
s
Dir
20/11:30pm 30.3 SW 5 6 1006.9 - 0.0 - - 10 - - - -
20/11:00pm 30.5 W 6 7 1006.7 - 0.0 - - 10 - - - -
20/10:30pm 30.7 W 5 7 1006.5 - 0.0 - - 10 - - - -
20/10:00pm 31.4 WNW 6 7 1006.8 - 0.0 - - 10 - - - -
20/09:30pm 31.5 W 6 7 1006.8 - 0.0 - - 10 - - - -
20/09:00pm 31.5 WNW 5 6 1006.6 - 0.0 - - 10 - - - -
20/08:30pm 31.5 NW 6 7 1006.5 - 0.0 - - 10 - - - -
20/08:00pm 31.7 WNW 6 8 1006.4 - 0.0 - - 10 - - - -
20/07:30pm 32.2 WNW 8 10 1005.7 - 0.0 - - 10 - - - -
20/07:00pm 32.6 WNW 10 13 1005.3 - 0.0 - - 10 - - - -
20/06:30pm 32.8 W 9 11 1004.8 - 0.0 - - 10 - - - -
20/06:00pm 33.7 NW 10 11 1004.2 - 0.0 - - 10 - - - -
20/05:30pm 34.5 NW 11 15 1004.0 - 0.0 - - 10 - - - -
20/05:00pm 35.1 NNW 12 15 1003.8 - 0.0 - - 10 - - - -
20/04:30pm 36.2 NNW 11 14 1003.7 - 0.0 - - 10 - - - -

Other Formats:

Comma delimited format used in spreadsheet applications
http://www.bom.gov.au/fwo/IDW60701/IDW60701.94312.axf

JavaScript Object Notation format (JSON) in row-major order
http://www.bom.gov.au/fwo/IDW60701/IDW60701.94312.json